sensor_id;sensor_type;location;lat;lon;timestamp;P1;durP1;ratioP1;P2;durP2;ratioP2
4508;SDS011;2267;48.816;9.230;2022-09-09T00:04:42;5.93;;;4.70;;
4508;SDS011;2267;48.816;9.230;2022-09-09T00:07:41;6.37;;;4.13;;
4508;SDS011;2267;48.816;9.230;2022-09-09T00:10:18;6.70;;;4.37;;
4508;SDS011;2267;48.816;9.230;2022-09-09T00:21:23;9.33;;;4.23;;
4508;SDS011;2267;48.816;9.230;2022-09-09T00:24:00;5.03;;;3.57;;
4508;SDS011;2267;48.816;9.230;2022-09-09T00:26:40;5.37;;;3.20;;
4508;SDS011;2267;48.816;9.230;2022-09-09T00:31:46;7.63;;;4.23;;
4508;SDS011;2267;48.816;9.230;2022-09-09T00:34:14;5.20;;;3.63;;
4508;SDS011;2267;48.816;9.230;2022-09-09T00:36:45;10.67;;;3.70;;
4508;SDS011;2267;48.816;9.230;2022-09-09T00:42:09;4.30;;;3.37;;
4508;SDS011;2267;48.816;9.230;2022-09-09T00:47:38;4.80;;;3.70;;
4508;SDS011;2267;48.816;9.230;2022-09-09T00:53:25;4.87;;;2.70;;
4508;SDS011;2267;48.816;9.230;2022-09-09T00:56:08;6.07;;;3.00;;
4508;SDS011;2267;48.816;9.230;2022-09-09T00:58:50;5.20;;;3.20;;
4508;SDS011;2267;48.816;9.230;2022-09-09T01:01:26;7.20;;;3.97;;
4508;SDS011;2267;48.816;9.230;2022-09-09T01:03:53;5.23;;;3.30;;
4508;SDS011;2267;48.816;9.230;2022-09-09T01:06:23;4.90;;;3.20;;
4508;SDS011;2267;48.816;9.230;2022-09-09T01:17:11;3.70;;;2.80;;
4508;SDS011;2267;48.816;9.230;2022-09-09T01:19:49;5.10;;;2.87;;
4508;SDS011;2267;48.816;9.230;2022-09-09T01:28:10;3.43;;;2.40;;
4508;SDS011;2267;48.816;9.230;2022-09-09T01:30:42;4.07;;;2.33;;
4508;SDS011;2267;48.816;9.230;2022-09-09T01:33:15;3.50;;;2.60;;
4508;SDS011;2267;48.816;9.230;2022-09-09T01:38:26;3.80;;;2.30;;
4508;SDS011;2267;48.816;9.230;2022-09-09T01:40:55;4.10;;;2.10;;
4508;SDS011;2267;48.816;9.230;2022-09-09T01:43:22;3.53;;;2.00;;
4508;SDS011;2267;48.816;9.230;2022-09-09T01:45:52;3.73;;;2.00;;
4508;SDS011;2267;48.816;9.230;2022-09-09T01:48:21;3.00;;;2.00;;
4508;SDS011;2267;48.816;9.230;2022-09-09T01:50:49;4.10;;;2.00;;
4508;SDS011;2267;48.816;9.230;2022-09-09T01:53:16;5.47;;;2.07;;
4508;SDS011;2267;48.816;9.230;2022-09-09T02:01:15;4.33;;;2.07;;
4508;SDS011;2267;48.816;9.230;2022-09-09T02:03:56;5.30;;;2.40;;
4508;SDS011;2267;48.816;9.230;2022-09-09T02:08:55;4.57;;;1.80;;
4508;SDS011;2267;48.816;9.230;2022-09-09T02:11:24;3.30;;;2.13;;
4508;SDS011;2267;48.816;9.230;2022-09-09T02:13:54;3.17;;;1.80;;
4508;SDS011;2267;48.816;9.230;2022-09-09T02:16:27;3.00;;;2.10;;
4508;SDS011;2267;48.816;9.230;2022-09-09T02:21:52;5.13;;;2.10;;
4508;SDS011;2267;48.816;9.230;2022-09-09T02:24:21;4.43;;;2.90;;
4508;SDS011;2267;48.816;9.230;2022-09-09T02:26:49;5.67;;;2.90;;
4508;SDS011;2267;48.816;9.230;2022-09-09T02:29:28;2.60;;;1.90;;
4508;SDS011;2267;48.816;9.230;2022-09-09T02:31:59;5.17;;;2.17;;
4508;SDS011;2267;48.816;9.230;2022-09-09T02:34:30;4.43;;;2.57;;
4508;SDS011;2267;48.816;9.230;2022-09-09T02:37:00;5.00;;;2.83;;
4508;SDS011;2267;48.816;9.230;2022-09-09T02:39:29;4.67;;;2.60;;
4508;SDS011;2267;48.816;9.230;2022-09-09T02:41:56;5.70;;;3.00;;
4508;SDS011;2267;48.816;9.230;2022-09-09T02:44:23;7.50;;;2.93;;
4508;SDS011;2267;48.816;9.230;2022-09-09T02:52:28;5.00;;;2.30;;
4508;SDS011;2267;48.816;9.230;2022-09-09T02:55:11;5.37;;;2.67;;
4508;SDS011;2267;48.816;9.230;2022-09-09T02:57:55;7.50;;;2.37;;
4508;SDS011;2267;48.816;9.230;2022-09-09T03:00:25;3.00;;;1.97;;
4508;SDS011;2267;48.816;9.230;2022-09-09T03:02:54;4.30;;;2.53;;
4508;SDS011;2267;48.816;9.230;2022-09-09T03:05:21;4.53;;;2.60;;
4508;SDS011;2267;48.816;9.230;2022-09-09T03:07:48;4.43;;;2.63;;
4508;SDS011;2267;48.816;9.230;2022-09-09T03:10:16;3.60;;;2.73;;
4508;SDS011;2267;48.816;9.230;2022-09-09T03:12:43;4.50;;;2.67;;
4508;SDS011;2267;48.816;9.230;2022-09-09T03:15:10;3.80;;;2.80;;
4508;SDS011;2267;48.816;9.230;2022-09-09T03:17:37;2.53;;;2.00;;
4508;SDS011;2267;48.816;9.230;2022-09-09T03:20:04;4.60;;;2.57;;
4508;SDS011;2267;48.816;9.230;2022-09-09T03:22:31;7.40;;;2.77;;
4508;SDS011;2267;48.816;9.230;2022-09-09T03:24:57;6.23;;;2.40;;
4508;SDS011;2267;48.816;9.230;2022-09-09T03:27:24;4.57;;;2.43;;
4508;SDS011;2267;48.816;9.230;2022-09-09T03:29:51;6.90;;;2.70;;
4508;SDS011;2267;48.816;9.230;2022-09-09T03:32:18;10.07;;;3.60;;
4508;SDS011;2267;48.816;9.230;2022-09-09T03:34:48;7.43;;;3.67;;
4508;SDS011;2267;48.816;9.230;2022-09-09T03:37:18;7.27;;;3.87;;
4508;SDS011;2267;48.816;9.230;2022-09-09T03:39:46;5.90;;;3.90;;
4508;SDS011;2267;48.816;9.230;2022-09-09T03:42:13;5.10;;;3.77;;
4508;SDS011;2267;48.816;9.230;2022-09-09T03:44:44;3.43;;;2.83;;
4508;SDS011;2267;48.816;9.230;2022-09-09T03:47:19;5.50;;;3.50;;
4508;SDS011;2267;48.816;9.230;2022-09-09T03:49:47;4.30;;;2.70;;
4508;SDS011;2267;48.816;9.230;2022-09-09T03:52:15;4.00;;;2.30;;
4508;SDS011;2267;48.816;9.230;2022-09-09T03:54:48;6.10;;;2.60;;
4508;SDS011;2267;48.816;9.230;2022-09-09T03:57:15;5.83;;;3.87;;
4508;SDS011;2267;48.816;9.230;2022-09-09T03:59:43;3.90;;;2.50;;
4508;SDS011;2267;48.816;9.230;2022-09-09T04:02:10;5.43;;;2.60;;
4508;SDS011;2267;48.816;9.230;2022-09-09T04:04:36;4.10;;;2.17;;
4508;SDS011;2267;48.816;9.230;2022-09-09T04:07:03;4.10;;;2.20;;
4508;SDS011;2267;48.816;9.230;2022-09-09T04:09:33;3.80;;;2.20;;
4508;SDS011;2267;48.816;9.230;2022-09-09T04:12:00;3.13;;;2.13;;
4508;SDS011;2267;48.816;9.230;2022-09-09T04:14:27;3.60;;;2.10;;
4508;SDS011;2267;48.816;9.230;2022-09-09T04:16:54;5.57;;;2.03;;
4508;SDS011;2267;48.816;9.230;2022-09-09T04:19:22;4.57;;;2.07;;
4508;SDS011;2267;48.816;9.230;2022-09-09T04:21:49;7.57;;;2.30;;
4508;SDS011;2267;48.816;9.230;2022-09-09T04:24:17;3.60;;;2.20;;
4508;SDS011;2267;48.816;9.230;2022-09-09T04:26:44;3.33;;;2.17;;
4508;SDS011;2267;48.816;9.230;2022-09-09T04:29:11;3.93;;;1.90;;
4508;SDS011;2267;48.816;9.230;2022-09-09T04:31:38;3.83;;;2.33;;
4508;SDS011;2267;48.816;9.230;2022-09-09T04:34:11;3.10;;;1.90;;
4508;SDS011;2267;48.816;9.230;2022-09-09T04:36:37;4.47;;;1.90;;
4508;SDS011;2267;48.816;9.230;2022-09-09T04:39:06;3.00;;;1.90;;
4508;SDS011;2267;48.816;9.230;2022-09-09T04:41:33;3.40;;;2.10;;
4508;SDS011;2267;48.816;9.230;2022-09-09T04:44:01;4.37;;;1.90;;
4508;SDS011;2267;48.816;9.230;2022-09-09T04:46:29;4.23;;;1.83;;
4508;SDS011;2267;48.816;9.230;2022-09-09T04:48:55;2.70;;;2.00;;
4508;SDS011;2267;48.816;9.230;2022-09-09T04:51:22;3.90;;;2.23;;
4508;SDS011;2267;48.816;9.230;2022-09-09T04:53:49;3.20;;;2.03;;
4508;SDS011;2267;48.816;9.230;2022-09-09T04:56:17;3.07;;;1.80;;
4508;SDS011;2267;48.816;9.230;2022-09-09T04:58:44;3.73;;;2.10;;
4508;SDS011;2267;48.816;9.230;2022-09-09T05:03:40;5.10;;;2.23;;
4508;SDS011;2267;48.816;9.230;2022-09-09T05:06:08;2.97;;;1.80;;
4508;SDS011;2267;48.816;9.230;2022-09-09T05:08:37;5.93;;;2.03;;
4508;SDS011;2267;48.816;9.230;2022-09-09T05:11:13;5.50;;;2.10;;
4508;SDS011;2267;48.816;9.230;2022-09-09T05:13:45;5.43;;;2.47;;
4508;SDS011;2267;48.816;9.230;2022-09-09T05:16:13;2.80;;;2.10;;
4508;SDS011;2267;48.816;9.230;2022-09-09T05:18:40;4.30;;;2.07;;
4508;SDS011;2267;48.816;9.230;2022-09-09T05:21:12;3.93;;;2.17;;
4508;SDS011;2267;48.816;9.230;2022-09-09T05:23:40;4.40;;;2.20;;
4508;SDS011;2267;48.816;9.230;2022-09-09T05:26:09;4.47;;;2.07;;
4508;SDS011;2267;48.816;9.230;2022-09-09T05:28:42;5.57;;;2.30;;
4508;SDS011;2267;48.816;9.230;2022-09-09T05:31:10;3.30;;;1.80;;
4508;SDS011;2267;48.816;9.230;2022-09-09T05:33:39;3.60;;;1.97;;
4508;SDS011;2267;48.816;9.230;2022-09-09T05:36:08;7.63;;;2.33;;
4508;SDS011;2267;48.816;9.230;2022-09-09T05:39:01;3.50;;;2.03;;
4508;SDS011;2267;48.816;9.230;2022-09-09T05:41:27;5.10;;;2.47;;
4508;SDS011;2267;48.816;9.230;2022-09-09T05:43:55;7.30;;;2.10;;
4508;SDS011;2267;48.816;9.230;2022-09-09T05:46:23;3.67;;;1.93;;
4508;SDS011;2267;48.816;9.230;2022-09-09T05:48:51;3.80;;;1.90;;
4508;SDS011;2267;48.816;9.230;2022-09-09T05:51:23;6.10;;;2.43;;
4508;SDS011;2267;48.816;9.230;2022-09-09T05:53:52;3.93;;;2.33;;
4508;SDS011;2267;48.816;9.230;2022-09-09T05:56:21;3.33;;;2.30;;
4508;SDS011;2267;48.816;9.230;2022-09-09T05:58:51;4.60;;;2.73;;
4508;SDS011;2267;48.816;9.230;2022-09-09T06:01:24;3.13;;;1.90;;
4508;SDS011;2267;48.816;9.230;2022-09-09T06:03:56;5.13;;;2.13;;
4508;SDS011;2267;48.816;9.230;2022-09-09T06:06:24;3.57;;;1.70;;
4508;SDS011;2267;48.816;9.230;2022-09-09T06:08:55;8.13;;;2.27;;
4508;SDS011;2267;48.816;9.230;2022-09-09T06:11:25;6.00;;;1.90;;
4508;SDS011;2267;48.816;9.230;2022-09-09T06:13:57;2.80;;;1.83;;
4508;SDS011;2267;48.816;9.230;2022-09-09T06:16:25;2.63;;;1.63;;
4508;SDS011;2267;48.816;9.230;2022-09-09T06:18:54;3.73;;;2.23;;
4508;SDS011;2267;48.816;9.230;2022-09-09T06:21:23;4.00;;;1.97;;
4508;SDS011;2267;48.816;9.230;2022-09-09T06:23:52;3.10;;;1.83;;
4508;SDS011;2267;48.816;9.230;2022-09-09T06:26:29;5.40;;;1.90;;
4508;SDS011;2267;48.816;9.230;2022-09-09T06:28:58;3.60;;;1.87;;
4508;SDS011;2267;48.816;9.230;2022-09-09T06:31:26;3.70;;;1.70;;
4508;SDS011;2267;48.816;9.230;2022-09-09T06:33:57;4.17;;;2.33;;
4508;SDS011;2267;48.816;9.230;2022-09-09T06:36:25;3.30;;;2.17;;
4508;SDS011;2267;48.816;9.230;2022-09-09T06:38:54;5.20;;;2.13;;
4508;SDS011;2267;48.816;9.230;2022-09-09T06:41:22;6.40;;;2.07;;
4508;SDS011;2267;48.816;9.230;2022-09-09T06:43:52;5.50;;;2.30;;
4508;SDS011;2267;48.816;9.230;2022-09-09T06:46:20;5.27;;;2.30;;
4508;SDS011;2267;48.816;9.230;2022-09-09T06:48:49;5.30;;;2.40;;
4508;SDS011;2267;48.816;9.230;2022-09-09T06:51:17;5.43;;;2.33;;
4508;SDS011;2267;48.816;9.230;2022-09-09T06:53:47;2.80;;;1.70;;
4508;SDS011;2267;48.816;9.230;2022-09-09T06:56:18;4.90;;;1.87;;
4508;SDS011;2267;48.816;9.230;2022-09-09T06:58:45;2.97;;;2.23;;
4508;SDS011;2267;48.816;9.230;2022-09-09T07:01:14;6.00;;;2.40;;
4508;SDS011;2267;48.816;9.230;2022-09-09T07:03:49;6.00;;;2.10;;
4508;SDS011;2267;48.816;9.230;2022-09-09T07:06:18;6.37;;;2.80;;
4508;SDS011;2267;48.816;9.230;2022-09-09T07:08:53;4.20;;;1.80;;
4508;SDS011;2267;48.816;9.230;2022-09-09T07:11:22;2.83;;;1.80;;
4508;SDS011;2267;48.816;9.230;2022-09-09T07:13:53;3.53;;;2.20;;
4508;SDS011;2267;48.816;9.230;2022-09-09T07:16:21;4.83;;;1.60;;
4508;SDS011;2267;48.816;9.230;2022-09-09T07:18:51;3.10;;;1.80;;
4508;SDS011;2267;48.816;9.230;2022-09-09T07:21:21;2.50;;;2.13;;
4508;SDS011;2267;48.816;9.230;2022-09-09T07:23:48;4.63;;;2.20;;
4508;SDS011;2267;48.816;9.230;2022-09-09T07:26:19;3.17;;;1.67;;
4508;SDS011;2267;48.816;9.230;2022-09-09T07:28:48;7.00;;;2.03;;
4508;SDS011;2267;48.816;9.230;2022-09-09T07:31:19;3.83;;;1.70;;
4508;SDS011;2267;48.816;9.230;2022-09-09T07:33:51;4.50;;;1.77;;
4508;SDS011;2267;48.816;9.230;2022-09-09T07:36:19;2.80;;;1.60;;
4508;SDS011;2267;48.816;9.230;2022-09-09T07:39:08;4.77;;;2.10;;
4508;SDS011;2267;48.816;9.230;2022-09-09T07:44:09;2.70;;;1.97;;
4508;SDS011;2267;48.816;9.230;2022-09-09T07:46:38;3.60;;;1.90;;
4508;SDS011;2267;48.816;9.230;2022-09-09T07:49:06;4.03;;;2.10;;
4508;SDS011;2267;48.816;9.230;2022-09-09T07:51:34;4.03;;;1.50;;
4508;SDS011;2267;48.816;9.230;2022-09-09T07:54:04;4.73;;;2.10;;
4508;SDS011;2267;48.816;9.230;2022-09-09T07:56:33;3.50;;;1.90;;
4508;SDS011;2267;48.816;9.230;2022-09-09T07:59:00;4.73;;;2.10;;
4508;SDS011;2267;48.816;9.230;2022-09-09T08:01:28;3.70;;;1.93;;
4508;SDS011;2267;48.816;9.230;2022-09-09T08:03:58;3.57;;;2.10;;
4508;SDS011;2267;48.816;9.230;2022-09-09T08:06:29;3.13;;;2.00;;
4508;SDS011;2267;48.816;9.230;2022-09-09T08:08:59;4.63;;;2.40;;
4508;SDS011;2267;48.816;9.230;2022-09-09T08:11:26;5.03;;;2.27;;
4508;SDS011;2267;48.816;9.230;2022-09-09T08:13:55;3.83;;;2.17;;
4508;SDS011;2267;48.816;9.230;2022-09-09T08:16:29;5.07;;;2.40;;
4508;SDS011;2267;48.816;9.230;2022-09-09T08:18:58;5.40;;;2.20;;
4508;SDS011;2267;48.816;9.230;2022-09-09T08:21:29;3.67;;;1.87;;
4508;SDS011;2267;48.816;9.230;2022-09-09T08:23:58;4.00;;;1.70;;
4508;SDS011;2267;48.816;9.230;2022-09-09T08:26:28;4.03;;;1.93;;
4508;SDS011;2267;48.816;9.230;2022-09-09T08:29:00;5.53;;;1.80;;
4508;SDS011;2267;48.816;9.230;2022-09-09T08:31:30;7.13;;;2.10;;
4508;SDS011;2267;48.816;9.230;2022-09-09T08:33:59;7.00;;;2.10;;
4508;SDS011;2267;48.816;9.230;2022-09-09T08:36:30;2.93;;;1.90;;
4508;SDS011;2267;48.816;9.230;2022-09-09T08:39:02;3.97;;;1.93;;
4508;SDS011;2267;48.816;9.230;2022-09-09T08:52:21;3.10;;;1.40;;
4508;SDS011;2267;48.816;9.230;2022-09-09T08:54:49;2.53;;;1.20;;
4508;SDS011;2267;48.816;9.230;2022-09-09T08:57:19;3.33;;;1.30;;
4508;SDS011;2267;48.816;9.230;2022-09-09T08:59:53;3.13;;;1.40;;
4508;SDS011;2267;48.816;9.230;2022-09-09T09:05:01;2.60;;;1.50;;
4508;SDS011;2267;48.816;9.230;2022-09-09T09:07:49;4.93;;;1.40;;
4508;SDS011;2267;48.816;9.230;2022-09-09T09:10:39;6.37;;;1.90;;
4508;SDS011;2267;48.816;9.230;2022-09-09T09:13:17;5.40;;;1.30;;
4508;SDS011;2267;48.816;9.230;2022-09-09T09:15:49;4.23;;;1.10;;
4508;SDS011;2267;48.816;9.230;2022-09-09T09:18:23;2.77;;;1.17;;
4508;SDS011;2267;48.816;9.230;2022-09-09T09:21:05;3.33;;;1.00;;
4508;SDS011;2267;48.816;9.230;2022-09-09T09:23:40;4.27;;;1.67;;
4508;SDS011;2267;48.816;9.230;2022-09-09T09:26:14;2.70;;;1.10;;
4508;SDS011;2267;48.816;9.230;2022-09-09T09:28:41;4.07;;;1.57;;
4508;SDS011;2267;48.816;9.230;2022-09-09T09:31:11;3.40;;;1.20;;
4508;SDS011;2267;48.816;9.230;2022-09-09T09:36:13;2.70;;;1.20;;
4508;SDS011;2267;48.816;9.230;2022-09-09T09:38:56;2.93;;;1.00;;
4508;SDS011;2267;48.816;9.230;2022-09-09T09:41:46;2.87;;;1.10;;
4508;SDS011;2267;48.816;9.230;2022-09-09T09:44:29;5.53;;;1.30;;
4508;SDS011;2267;48.816;9.230;2022-09-09T09:47:13;1.80;;;0.90;;
4508;SDS011;2267;48.816;9.230;2022-09-09T09:49:51;2.93;;;1.50;;
4508;SDS011;2267;48.816;9.230;2022-09-09T09:52:24;2.00;;;1.00;;
4508;SDS011;2267;48.816;9.230;2022-09-09T09:54:56;2.70;;;1.00;;
4508;SDS011;2267;48.816;9.230;2022-09-09T09:57:32;2.70;;;1.00;;
4508;SDS011;2267;48.816;9.230;2022-09-09T10:00:16;2.50;;;1.00;;
4508;SDS011;2267;48.816;9.230;2022-09-09T10:02:45;2.13;;;0.90;;
4508;SDS011;2267;48.816;9.230;2022-09-09T10:05:20;2.43;;;1.07;;
4508;SDS011;2267;48.816;9.230;2022-09-09T10:08:00;2.90;;;1.10;;
4508;SDS011;2267;48.816;9.230;2022-09-09T10:10:34;2.83;;;1.07;;
4508;SDS011;2267;48.816;9.230;2022-09-09T10:19:04;3.17;;;1.30;;
4508;SDS011;2267;48.816;9.230;2022-09-09T10:30:19;2.37;;;1.13;;
4508;SDS011;2267;48.816;9.230;2022-09-09T10:38:29;2.80;;;1.20;;
4508;SDS011;2267;48.816;9.230;2022-09-09T10:54:55;6.90;;;1.60;;
4508;SDS011;2267;48.816;9.230;2022-09-09T10:59:57;3.93;;;1.17;;
4508;SDS011;2267;48.816;9.230;2022-09-09T11:02:31;3.83;;;1.30;;
4508;SDS011;2267;48.816;9.230;2022-09-09T11:07:47;2.00;;;1.07;;
4508;SDS011;2267;48.816;9.230;2022-09-09T11:10:23;2.57;;;1.10;;
4508;SDS011;2267;48.816;9.230;2022-09-09T11:12:52;3.90;;;1.50;;
4508;SDS011;2267;48.816;9.230;2022-09-09T11:15:26;3.63;;;1.47;;
4508;SDS011;2267;48.816;9.230;2022-09-09T11:17:58;3.17;;;1.20;;
4508;SDS011;2267;48.816;9.230;2022-09-09T11:20:29;5.73;;;2.00;;
4508;SDS011;2267;48.816;9.230;2022-09-09T11:22:59;4.93;;;1.60;;
4508;SDS011;2267;48.816;9.230;2022-09-09T11:25:34;4.00;;;1.20;;
4508;SDS011;2267;48.816;9.230;2022-09-09T11:30:59;4.70;;;1.03;;
4508;SDS011;2267;48.816;9.230;2022-09-09T11:39:14;5.40;;;1.20;;
4508;SDS011;2267;48.816;9.230;2022-09-09T11:44:34;2.40;;;0.77;;
4508;SDS011;2267;48.816;9.230;2022-09-09T11:47:01;6.00;;;1.20;;
4508;SDS011;2267;48.816;9.230;2022-09-09T11:49:28;4.37;;;1.20;;
4508;SDS011;2267;48.816;9.230;2022-09-09T11:52:11;4.47;;;0.93;;
4508;SDS011;2267;48.816;9.230;2022-09-09T11:54:47;4.03;;;1.00;;
4508;SDS011;2267;48.816;9.230;2022-09-09T11:57:25;1.80;;;0.90;;
4508;SDS011;2267;48.816;9.230;2022-09-09T12:00:01;2.63;;;0.80;;
4508;SDS011;2267;48.816;9.230;2022-09-09T12:02:29;2.27;;;0.90;;
4508;SDS011;2267;48.816;9.230;2022-09-09T12:07:36;1.70;;;0.90;;
4508;SDS011;2267;48.816;9.230;2022-09-09T12:10:28;2.97;;;1.10;;
4508;SDS011;2267;48.816;9.230;2022-09-09T12:15:55;2.33;;;0.70;;
4508;SDS011;2267;48.816;9.230;2022-09-09T12:18:36;1.70;;;0.70;;
4508;SDS011;2267;48.816;9.230;2022-09-09T12:23:49;2.17;;;0.70;;
4508;SDS011;2267;48.816;9.230;2022-09-09T12:26:35;2.23;;;0.70;;
4508;SDS011;2267;48.816;9.230;2022-09-09T12:29:28;1.70;;;0.80;;
4508;SDS011;2267;48.816;9.230;2022-09-09T12:32:22;1.60;;;0.73;;
4508;SDS011;2267;48.816;9.230;2022-09-09T12:34:55;2.20;;;0.90;;
4508;SDS011;2267;48.816;9.230;2022-09-09T12:37:29;1.90;;;0.70;;
4508;SDS011;2267;48.816;9.230;2022-09-09T12:42:30;2.07;;;0.70;;
4508;SDS011;2267;48.816;9.230;2022-09-09T12:45:15;2.10;;;0.90;;
4508;SDS011;2267;48.816;9.230;2022-09-09T12:47:49;2.53;;;1.10;;
4508;SDS011;2267;48.816;9.230;2022-09-09T12:50:24;1.90;;;0.70;;
4508;SDS011;2267;48.816;9.230;2022-09-09T12:52:54;1.70;;;0.70;;
4508;SDS011;2267;48.816;9.230;2022-09-09T12:55:27;2.20;;;0.63;;
4508;SDS011;2267;48.816;9.230;2022-09-09T12:57:57;1.87;;;0.87;;
4508;SDS011;2267;48.816;9.230;2022-09-09T13:00:25;3.10;;;1.00;;
4508;SDS011;2267;48.816;9.230;2022-09-09T13:02:57;5.13;;;1.23;;
4508;SDS011;2267;48.816;9.230;2022-09-09T13:05:26;1.63;;;0.77;;
4508;SDS011;2267;48.816;9.230;2022-09-09T13:08:07;1.57;;;0.60;;
4508;SDS011;2267;48.816;9.230;2022-09-09T13:10:56;2.40;;;0.80;;
4508;SDS011;2267;48.816;9.230;2022-09-09T13:13:38;1.70;;;0.73;;
4508;SDS011;2267;48.816;9.230;2022-09-09T13:16:21;2.27;;;0.90;;
4508;SDS011;2267;48.816;9.230;2022-09-09T13:18:52;1.80;;;0.90;;
4508;SDS011;2267;48.816;9.230;2022-09-09T13:21:19;2.00;;;0.73;;
4508;SDS011;2267;48.816;9.230;2022-09-09T13:23:56;1.90;;;0.80;;
4508;SDS011;2267;48.816;9.230;2022-09-09T13:26:26;1.97;;;0.80;;
4508;SDS011;2267;48.816;9.230;2022-09-09T13:28:53;2.90;;;1.00;;
4508;SDS011;2267;48.816;9.230;2022-09-09T13:31:29;1.90;;;0.80;;
4508;SDS011;2267;48.816;9.230;2022-09-09T13:33:58;2.83;;;1.00;;
4508;SDS011;2267;48.816;9.230;2022-09-09T13:36:36;2.30;;;1.00;;
4508;SDS011;2267;48.816;9.230;2022-09-09T13:39:03;3.30;;;0.87;;
4508;SDS011;2267;48.816;9.230;2022-09-09T13:41:34;1.70;;;0.70;;
4508;SDS011;2267;48.816;9.230;2022-09-09T13:44:02;2.90;;;0.97;;
4508;SDS011;2267;48.816;9.230;2022-09-09T13:46:39;1.90;;;0.80;;
4508;SDS011;2267;48.816;9.230;2022-09-09T13:51:38;2.03;;;0.90;;
4508;SDS011;2267;48.816;9.230;2022-09-09T13:54:33;4.50;;;0.80;;
4508;SDS011;2267;48.816;9.230;2022-09-09T13:57:01;2.03;;;0.87;;
4508;SDS011;2267;48.816;9.230;2022-09-09T13:59:27;2.80;;;1.00;;
4508;SDS011;2267;48.816;9.230;2022-09-09T14:02:14;1.70;;;0.80;;
4508;SDS011;2267;48.816;9.230;2022-09-09T14:04:43;2.27;;;0.80;;
4508;SDS011;2267;48.816;9.230;2022-09-09T14:07:14;2.50;;;0.70;;
4508;SDS011;2267;48.816;9.230;2022-09-09T14:09:42;2.47;;;0.90;;
4508;SDS011;2267;48.816;9.230;2022-09-09T14:12:12;2.60;;;0.93;;
4508;SDS011;2267;48.816;9.230;2022-09-09T14:14:41;1.50;;;0.70;;
4508;SDS011;2267;48.816;9.230;2022-09-09T14:17:08;2.53;;;0.90;;
4508;SDS011;2267;48.816;9.230;2022-09-09T14:19:35;2.70;;;0.93;;
4508;SDS011;2267;48.816;9.230;2022-09-09T14:22:03;2.53;;;0.90;;
4508;SDS011;2267;48.816;9.230;2022-09-09T14:24:30;1.87;;;0.80;;
4508;SDS011;2267;48.816;9.230;2022-09-09T14:26:57;1.90;;;0.70;;
4508;SDS011;2267;48.816;9.230;2022-09-09T14:29:23;2.13;;;0.70;;
4508;SDS011;2267;48.816;9.230;2022-09-09T14:31:52;2.53;;;0.80;;
4508;SDS011;2267;48.816;9.230;2022-09-09T14:34:19;2.90;;;0.90;;
4508;SDS011;2267;48.816;9.230;2022-09-09T14:36:46;3.00;;;0.97;;
4508;SDS011;2267;48.816;9.230;2022-09-09T14:39:13;1.93;;;0.60;;
4508;SDS011;2267;48.816;9.230;2022-09-09T14:41:40;1.70;;;0.80;;
4508;SDS011;2267;48.816;9.230;2022-09-09T14:44:07;3.00;;;0.80;;
4508;SDS011;2267;48.816;9.230;2022-09-09T14:46:34;2.17;;;0.70;;
4508;SDS011;2267;48.816;9.230;2022-09-09T14:49:01;2.63;;;0.87;;
4508;SDS011;2267;48.816;9.230;2022-09-09T14:51:28;3.20;;;1.10;;
4508;SDS011;2267;48.816;9.230;2022-09-09T14:53:55;3.30;;;1.03;;
4508;SDS011;2267;48.816;9.230;2022-09-09T14:56:25;2.33;;;0.70;;
4508;SDS011;2267;48.816;9.230;2022-09-09T14:58:54;5.03;;;0.67;;
4508;SDS011;2267;48.816;9.230;2022-09-09T15:01:22;1.80;;;0.77;;
4508;SDS011;2267;48.816;9.230;2022-09-09T15:04:00;1.97;;;0.70;;
4508;SDS011;2267;48.816;9.230;2022-09-09T15:06:29;1.80;;;0.63;;
4508;SDS011;2267;48.816;9.230;2022-09-09T15:08:59;2.73;;;0.90;;
4508;SDS011;2267;48.816;9.230;2022-09-09T15:11:30;2.00;;;0.90;;
4508;SDS011;2267;48.816;9.230;2022-09-09T15:14:04;1.77;;;0.90;;
4508;SDS011;2267;48.816;9.230;2022-09-09T15:16:31;1.90;;;0.80;;
4508;SDS011;2267;48.816;9.230;2022-09-09T15:18:59;1.70;;;0.80;;
4508;SDS011;2267;48.816;9.230;2022-09-09T15:21:28;2.17;;;0.80;;
4508;SDS011;2267;48.816;9.230;2022-09-09T15:24:00;1.83;;;0.70;;
4508;SDS011;2267;48.816;9.230;2022-09-09T15:26:28;2.27;;;0.93;;
4508;SDS011;2267;48.816;9.230;2022-09-09T15:28:56;2.40;;;0.90;;
4508;SDS011;2267;48.816;9.230;2022-09-09T15:31:26;3.03;;;0.90;;
4508;SDS011;2267;48.816;9.230;2022-09-09T15:33:55;1.90;;;0.90;;
4508;SDS011;2267;48.816;9.230;2022-09-09T15:36:39;2.57;;;0.80;;
4508;SDS011;2267;48.816;9.230;2022-09-09T15:39:08;2.07;;;0.70;;
4508;SDS011;2267;48.816;9.230;2022-09-09T15:41:39;1.90;;;0.70;;
4508;SDS011;2267;48.816;9.230;2022-09-09T15:44:06;1.60;;;0.70;;
4508;SDS011;2267;48.816;9.230;2022-09-09T15:46:40;2.33;;;0.70;;
4508;SDS011;2267;48.816;9.230;2022-09-09T15:51:38;2.33;;;0.90;;
4508;SDS011;2267;48.816;9.230;2022-09-09T15:54:13;1.83;;;0.80;;
4508;SDS011;2267;48.816;9.230;2022-09-09T15:56:42;3.60;;;1.60;;
4508;SDS011;2267;48.816;9.230;2022-09-09T15:59:10;2.30;;;0.90;;
4508;SDS011;2267;48.816;9.230;2022-09-09T16:01:37;1.83;;;0.80;;
4508;SDS011;2267;48.816;9.230;2022-09-09T16:04:08;3.20;;;0.73;;
4508;SDS011;2267;48.816;9.230;2022-09-09T16:06:35;1.80;;;0.90;;
4508;SDS011;2267;48.816;9.230;2022-09-09T16:09:03;1.70;;;0.70;;
4508;SDS011;2267;48.816;9.230;2022-09-09T16:11:32;3.00;;;0.87;;
4508;SDS011;2267;48.816;9.230;2022-09-09T16:14:01;3.70;;;0.80;;
4508;SDS011;2267;48.816;9.230;2022-09-09T16:16:30;2.27;;;1.00;;
4508;SDS011;2267;48.816;9.230;2022-09-09T16:18:58;3.83;;;1.17;;
4508;SDS011;2267;48.816;9.230;2022-09-09T16:21:28;3.70;;;1.00;;
4508;SDS011;2267;48.816;9.230;2022-09-09T16:23:56;2.03;;;0.90;;
4508;SDS011;2267;48.816;9.230;2022-09-09T16:26:29;2.53;;;1.00;;
4508;SDS011;2267;48.816;9.230;2022-09-09T16:28:57;2.73;;;0.90;;
4508;SDS011;2267;48.816;9.230;2022-09-09T16:31:26;3.13;;;1.10;;
4508;SDS011;2267;48.816;9.230;2022-09-09T16:33:53;2.30;;;1.03;;
4508;SDS011;2267;48.816;9.230;2022-09-09T16:36:24;2.97;;;0.70;;
4508;SDS011;2267;48.816;9.230;2022-09-09T16:38:54;1.70;;;0.60;;
4508;SDS011;2267;48.816;9.230;2022-09-09T16:41:23;3.70;;;0.60;;
4508;SDS011;2267;48.816;9.230;2022-09-09T16:43:57;1.73;;;0.70;;
4508;SDS011;2267;48.816;9.230;2022-09-09T16:46:26;1.80;;;0.80;;
4508;SDS011;2267;48.816;9.230;2022-09-09T16:48:55;1.60;;;0.70;;
4508;SDS011;2267;48.816;9.230;2022-09-09T16:51:30;2.23;;;0.80;;
4508;SDS011;2267;48.816;9.230;2022-09-09T16:53:59;2.53;;;0.80;;
4508;SDS011;2267;48.816;9.230;2022-09-09T16:56:28;2.43;;;0.80;;
4508;SDS011;2267;48.816;9.230;2022-09-09T16:59:00;1.80;;;0.90;;
4508;SDS011;2267;48.816;9.230;2022-09-09T17:01:29;2.07;;;0.83;;
4508;SDS011;2267;48.816;9.230;2022-09-09T17:03:59;2.30;;;0.70;;
4508;SDS011;2267;48.816;9.230;2022-09-09T17:06:28;1.93;;;0.80;;
4508;SDS011;2267;48.816;9.230;2022-09-09T17:08:57;1.60;;;0.67;;
4508;SDS011;2267;48.816;9.230;2022-09-09T17:11:25;1.60;;;0.80;;
4508;SDS011;2267;48.816;9.230;2022-09-09T17:13:53;1.73;;;0.73;;
4508;SDS011;2267;48.816;9.230;2022-09-09T17:16:22;1.50;;;0.70;;
4508;SDS011;2267;48.816;9.230;2022-09-09T17:18:51;2.33;;;0.70;;
4508;SDS011;2267;48.816;9.230;2022-09-09T17:21:21;1.67;;;0.70;;
4508;SDS011;2267;48.816;9.230;2022-09-09T17:23:51;1.90;;;0.80;;
4508;SDS011;2267;48.816;9.230;2022-09-09T17:26:21;1.80;;;0.80;;
4508;SDS011;2267;48.816;9.230;2022-09-09T17:28:49;1.80;;;0.90;;
4508;SDS011;2267;48.816;9.230;2022-09-09T17:31:20;1.60;;;0.70;;
4508;SDS011;2267;48.816;9.230;2022-09-09T17:33:48;3.00;;;0.80;;
4508;SDS011;2267;48.816;9.230;2022-09-09T17:36:17;1.60;;;1.00;;
4508;SDS011;2267;48.816;9.230;2022-09-09T17:38:49;3.07;;;1.00;;
4508;SDS011;2267;48.816;9.230;2022-09-09T17:41:20;1.60;;;0.60;;
4508;SDS011;2267;48.816;9.230;2022-09-09T17:43:48;1.47;;;0.67;;
4508;SDS011;2267;48.816;9.230;2022-09-09T17:48:49;2.30;;;0.90;;
4508;SDS011;2267;48.816;9.230;2022-09-09T17:51:20;2.73;;;1.00;;
4508;SDS011;2267;48.816;9.230;2022-09-09T17:53:54;1.60;;;0.80;;
4508;SDS011;2267;48.816;9.230;2022-09-09T17:56:24;1.70;;;0.90;;
4508;SDS011;2267;48.816;9.230;2022-09-09T17:58:54;1.90;;;1.00;;
4508;SDS011;2267;48.816;9.230;2022-09-09T18:01:22;2.17;;;0.90;;
4508;SDS011;2267;48.816;9.230;2022-09-09T18:03:53;2.03;;;1.00;;
4508;SDS011;2267;48.816;9.230;2022-09-09T18:06:25;2.50;;;0.97;;